Terminal Aerodrome Forecast
Issued by NWS

Home | Current Version | Previous Version | Text Only | Print | Product List | Glossary On
Versions: 1 2 3 4 5 6 7 8 9 10 11 12 13 14 15 16 17
000
FTUS41 KBTV 260500
TAFSLK
TAF
KSLK 260538Z 2606/2706 00000KT 6SM BR SKC
      TEMPO 2608/2611 1SM BR
     FM261200 24009KT P6SM FEW050 SCT150
     FM261800 24010KT P6SM BKN060
     FM270100 22004KT P6SM BKN070=

USA.gov is the U.S. government's official web portal to all federal, state and local government web resources and services.